Time;durP1;ratioP1;P1;durP2;ratioP2;P2;SDS_P1;SDS_P2;PMS_P1;PMS_P2;Temp;Humidity;BMP_temperature;BMP_pressure;BME280_temperature;BME280_humidity;BME280_pressure;Samples;Min_cycle;Max_cycle;Signal;HPM_P1;HPM_P2
2022/04/13 00:02:00;;;;;;;1.70;1.58;;;21.30;48.80;;;;;;5134872;27;20091;-56
2022/04/13 00:04:25;;;;;;;1.90;1.80;;;21.30;48.80;;;;;;5134836;27;20035;-56
2022/04/13 00:06:51;;;;;;;1.95;1.75;;;21.30;48.80;;;;;;5134247;27;20039;-56
2022/04/13 00:09:16;;;;;;;2.28;1.70;;;21.30;48.70;;;;;;5134808;27;20038;-56
2022/04/13 00:11:42;;;;;;;1.60;1.50;;;21.30;48.70;;;;;;5134290;27;20386;-57
2022/04/13 00:14:07;;;;;;;2.22;1.75;;;21.20;48.70;;;;;;5135329;27;20055;-56
2022/04/13 00:16:33;;;;;;;1.92;1.73;;;21.30;48.90;;;;;;5135464;27;20039;-56
2022/04/13 00:18:59;;;;;;;1.75;1.63;;;21.30;49.10;;;;;;5135256;27;20363;-56
2022/04/13 00:21:24;;;;;;;1.90;1.70;;;21.30;49.20;;;;;;5134658;27;20039;-56
2022/04/13 00:23:50;;;;;;;1.85;1.73;;;21.30;49.40;;;;;;5134586;27;20062;-56
2022/04/13 00:26:15;;;;;;;1.67;1.58;;;21.30;49.50;;;;;;5134648;27;20043;-56
2022/04/13 00:28:41;;;;;;;2.67;1.90;;;21.30;49.50;;;;;;5134601;27;20370;-56
2022/04/13 00:31:07;;;;;;;1.83;1.65;;;21.30;49.60;;;;;;5134648;27;20121;-56
2022/04/13 00:33:33;;;;;;;2.15;1.50;;;21.30;49.60;;;;;;5134864;27;20463;-56
2022/04/13 00:36:00;;;;;;;2.72;1.70;;;21.30;49.60;;;;;;5135077;27;20058;-56
2022/04/13 00:38:25;;;;;;;1.92;1.70;;;21.20;49.50;;;;;;5134229;27;20385;-56
2022/04/13 00:40:51;;;;;;;3.05;1.92;;;21.20;50.20;;;;;;5134528;27;20035;-55
2022/04/13 00:43:17;;;;;;;1.60;1.50;;;21.20;49.50;;;;;;5134408;27;20093;-56
2022/04/13 00:45:47;;;;;;;1.95;1.73;;;21.20;49.50;;;;;;5134445;27;20035;-56
2022/04/13 00:48:34;;;;;;;1.70;1.60;;;21.20;49.50;;;;;;5134442;27;20039;-56
2022/04/13 00:50:59;;;;;;;2.03;1.65;;;21.20;49.40;;;;;;5134751;27;20335;-56
2022/04/13 00:53:26;;;;;;;2.10;1.85;;;21.20;49.30;;;;;;5134690;27;20061;-56
2022/04/13 00:55:56;;;;;;;2.00;1.40;;;21.20;49.30;;;;;;5134377;27;20466;-55
2022/04/13 00:58:23;;;;;;;2.50;1.90;;;21.20;49.30;;;;;;5134361;27;20378;-56
2022/04/13 01:00:50;;;;;;;1.85;1.63;;;21.20;49.30;;;;;;5134590;27;20043;-56
2022/04/13 01:03:18;;;;;;;2.30;1.70;;;21.20;49.20;;;;;;5134113;27;20095;-56
2022/04/13 01:05:46;;;;;;;1.77;1.65;;;21.20;49.20;;;;;;5134132;27;20491;-56
2022/04/13 01:08:13;;;;;;;1.77;1.67;;;21.20;49.00;;;;;;5134239;27;20091;-56
2022/04/13 01:10:42;;;;;;;2.30;1.83;;;21.20;49.00;;;;;;5134210;27;20051;-56
2022/04/13 01:13:08;;;;;;;2.40;1.35;;;21.20;49.00;;;;;;5134215;27;20104;-56
2022/04/13 01:15:34;;;;;;;1.83;1.70;;;21.20;48.90;;;;;;5134100;27;20036;-55
2022/04/13 01:17:59;;;;;;;2.00;1.85;;;21.20;48.90;;;;;;5135729;27;20039;-55
2022/04/13 01:20:25;;;;;;;2.20;1.83;;;21.20;48.90;;;;;;5138082;27;20426;-56
2022/04/13 01:22:51;;;;;;;1.73;1.63;;;21.20;48.90;;;;;;5137993;27;20082;-56
2022/04/13 01:25:16;;;;;;;1.90;1.60;;;21.20;48.90;;;;;;5138387;27;20396;-56
2022/04/13 01:27:42;;;;;;;1.70;1.60;;;21.20;48.80;;;;;;5137842;27;20079;-56
2022/04/13 01:30:09;;;;;;;1.63;1.35;;;21.20;48.80;;;;;;5137453;27;20058;-56
2022/04/13 01:32:35;;;;;;;1.55;1.45;;;21.20;48.70;;;;;;5137789;27;20064;-56
2022/04/13 01:35:00;;;;;;;3.20;1.70;;;21.20;48.70;;;;;;5137648;27;20074;-56
2022/04/13 01:37:26;;;;;;;1.58;1.48;;;21.20;48.80;;;;;;5137317;27;20075;-56
2022/04/13 01:39:51;;;;;;;2.03;1.70;;;21.10;48.70;;;;;;5137618;27;20043;-56
2022/04/13 01:42:17;;;;;;;1.35;1.25;;;21.10;48.60;;;;;;5137313;27;20043;-56
2022/04/13 01:44:43;;;;;;;1.85;1.70;;;21.10;48.60;;;;;;5137878;27;20076;-56
2022/04/13 01:47:09;;;;;;;1.83;1.48;;;21.10;48.60;;;;;;5137472;27;20047;-56
2022/04/13 01:49:38;;;;;;;1.98;1.77;;;21.10;48.60;;;;;;5138230;27;20043;-56
2022/04/13 01:52:05;;;;;;;1.50;1.40;;;21.10;48.60;;;;;;5138025;27;20046;-56
2022/04/13 01:54:31;;;;;;;2.20;2.00;;;21.10;48.50;;;;;;5137212;27;20051;-56
2022/04/13 01:56:57;;;;;;;2.10;1.55;;;21.10;48.60;;;;;;5136290;27;20070;-56
2022/04/13 01:59:22;;;;;;;2.53;1.70;;;21.10;48.50;;;;;;5137359;27;20118;-56
2022/04/13 02:01:48;;;;;;;2.08;1.60;;;21.10;48.60;;;;;;5137001;27;20042;-56
2022/04/13 02:04:25;;;;;;;1.75;1.65;;;21.10;48.40;;;;;;5137120;27;20031;-56
2022/04/13 02:06:52;;;;;;;2.60;1.58;;;21.10;48.40;;;;;;5137152;27;20078;-56
2022/04/13 02:09:18;;;;;;;1.98;1.50;;;21.10;48.50;;;;;;5137051;27;20054;-56
2022/04/13 02:11:45;;;;;;;1.90;1.80;;;21.10;48.40;;;;;;5135751;27;20067;-56
2022/04/13 02:14:11;;;;;;;2.30;1.70;;;21.10;48.50;;;;;;5137004;27;20126;-56
2022/04/13 02:16:37;;;;;;;3.53;2.03;;;21.10;48.40;;;;;;5136877;27;20043;-56
2022/04/13 02:19:03;;;;;;;2.33;1.88;;;21.10;48.40;;;;;;5135900;27;20051;-56
2022/04/13 02:21:30;;;;;;;2.33;1.50;;;21.10;48.40;;;;;;5136870;27;20579;-56
2022/04/13 02:23:56;;;;;;;1.92;1.73;;;21.10;48.30;;;;;;5135422;27;20043;-56
2022/04/13 02:26:22;;;;;;;1.98;1.70;;;21.10;48.40;;;;;;5136790;27;20122;-56
2022/04/13 02:28:49;;;;;;;2.33;2.10;;;21.10;48.40;;;;;;5136105;27;20041;-56
2022/04/13 02:31:14;;;;;;;2.78;2.10;;;21.10;48.30;;;;;;5136629;27;20039;-56
2022/04/13 02:33:40;;;;;;;1.85;1.60;;;21.10;48.30;;;;;;5135654;27;20035;-56
2022/04/13 02:36:06;;;;;;;2.03;1.70;;;21.10;48.30;;;;;;5136561;27;20047;-56
2022/04/13 02:38:32;;;;;;;2.78;2.00;;;21.10;48.40;;;;;;5136561;27;20481;-56
2022/04/13 02:40:58;;;;;;;1.92;1.50;;;21.10;48.40;;;;;;5137280;27;20523;-56
2022/04/13 02:43:28;;;;;;;2.03;1.55;;;21.10;48.30;;;;;;5137162;27;20039;-56
2022/04/13 02:45:57;;;;;;;1.95;1.80;;;21.10;48.20;;;;;;5136312;27;20046;-56
2022/04/13 02:48:23;;;;;;;2.30;1.67;;;21.10;48.20;;;;;;5136337;27;20047;-56
2022/04/13 02:50:48;;;;;;;2.10;1.85;;;21.10;48.20;;;;;;5136241;27;20076;-56
2022/04/13 02:53:14;;;;;;;2.75;1.85;;;21.10;49.00;;;;;;5136484;27;20082;-56
2022/04/13 02:55:40;;;;;;;5.00;2.00;;;21.10;48.20;;;;;;5136180;27;20035;-56
2022/04/13 02:58:06;;;;;;;4.07;2.38;;;21.10;48.20;;;;;;5136126;27;20053;-56
2022/04/13 03:00:31;;;;;;;3.65;1.75;;;21.00;48.10;;;;;;5136058;27;20061;-56
2022/04/13 03:02:57;;;;;;;2.83;2.05;;;21.00;48.10;;;;;;5135807;27;20088;-56
2022/04/13 03:05:22;;;;;;;2.88;2.10;;;21.00;48.10;;;;;;5135535;27;20047;-56
2022/04/13 03:07:48;;;;;;;1.98;1.70;;;21.00;48.10;;;;;;5136411;27;20039;-56
2022/04/13 03:10:13;;;;;;;4.90;2.30;;;21.00;48.00;;;;;;5135875;27;20074;-56
2022/04/13 03:12:41;;;;;;;3.10;1.90;;;21.00;48.00;;;;;;5135739;27;20369;-56
2022/04/13 03:15:08;;;;;;;3.28;1.95;;;21.00;48.00;;;;;;5135674;27;20051;-56
2022/04/13 03:17:34;;;;;;;2.83;2.60;;;21.00;48.00;;;;;;5135664;27;20039;-56
2022/04/13 03:20:00;;;;;;;2.95;2.25;;;21.00;48.00;;;;;;5135712;27;20043;-56
2022/04/13 03:22:25;;;;;;;2.47;1.98;;;21.00;48.00;;;;;;5135592;27;20035;-56
2022/04/13 03:24:51;;;;;;;4.40;2.30;;;21.00;48.00;;;;;;5135532;27;20039;-57
2022/04/13 03:27:18;;;;;;;2.38;2.13;;;21.00;47.90;;;;;;5135508;27;20039;-56
2022/04/13 03:29:43;;;;;;;4.40;2.35;;;21.00;47.90;;;;;;5135487;27;20046;-56
2022/04/13 03:32:09;;;;;;;2.47;2.15;;;21.00;47.90;;;;;;5135705;27;20039;-56
2022/04/13 03:34:35;;;;;;;3.38;2.38;;;21.00;47.90;;;;;;5135391;27;20478;-56
2022/04/13 03:37:00;;;;;;;3.58;2.20;;;21.00;47.90;;;;;;5136092;27;20042;-56
2022/04/13 03:39:27;;;;;;;2.42;1.98;;;21.00;48.60;;;;;;5134931;27;20039;-56
2022/04/13 03:41:53;;;;;;;2.53;2.25;;;21.00;47.90;;;;;;5134443;27;20073;-56
2022/04/13 03:44:19;;;;;;;2.67;2.47;;;21.00;47.90;;;;;;5135210;27;20035;-56
2022/04/13 03:46:44;;;;;;;2.72;2.22;;;21.00;47.90;;;;;;5135561;27;20489;-56
2022/04/13 03:49:10;;;;;;;3.08;2.10;;;21.00;47.90;;;;;;5135171;27;20205;-56
2022/04/13 03:51:36;;;;;;;2.53;2.33;;;20.90;47.80;;;;;;5135189;27;20131;-56
2022/04/13 03:54:01;;;;;;;3.28;2.30;;;21.00;47.90;;;;;;5135679;27;20073;-56
2022/04/13 03:56:29;;;;;;;3.60;2.40;;;20.90;47.80;;;;;;5135116;27;20602;-56
2022/04/13 03:58:58;;;;;;;2.28;2.00;;;20.90;47.80;;;;;;5135361;27;20155;-56
2022/04/13 04:01:23;;;;;;;3.17;2.05;;;20.90;47.80;;;;;;5134909;27;20393;-56
2022/04/13 04:03:49;;;;;;;3.28;2.58;;;20.90;47.90;;;;;;5134134;27;20497;-56
2022/04/13 04:06:14;;;;;;;3.55;2.20;;;20.90;47.80;;;;;;5134941;27;20035;-56
2022/04/13 04:08:40;;;;;;;3.40;2.47;;;20.90;47.80;;;;;;5133932;27;20054;-56
2022/04/13 04:11:05;;;;;;;3.03;2.15;;;20.90;47.80;;;;;;5134758;27;20377;-56
2022/04/13 04:13:31;;;;;;;2.83;2.50;;;20.90;47.80;;;;;;5134350;27;20055;-56
2022/04/13 04:15:57;;;;;;;3.60;2.53;;;20.90;47.80;;;;;;5134735;27;20462;-56
2022/04/13 04:18:23;;;;;;;3.80;2.50;;;20.90;47.80;;;;;;5134785;27;20051;-55
2022/04/13 04:20:48;;;;;;;2.53;2.30;;;20.90;47.70;;;;;;5134780;27;20038;-56
2022/04/13 04:23:14;;;;;;;2.53;2.20;;;20.90;47.70;;;;;;5134641;27;20043;-56
2022/04/13 04:25:40;;;;;;;2.20;2.00;;;20.90;47.80;;;;;;5134594;27;20035;-56
2022/04/13 04:28:09;;;;;;;2.45;2.22;;;20.90;47.70;;;;;;5134632;27;20047;-56
2022/04/13 04:30:35;;;;;;;3.97;2.40;;;20.90;47.60;;;;;;5134580;27;20108;-55
2022/04/13 04:33:01;;;;;;;3.22;2.30;;;20.90;47.60;;;;;;5134572;27;20454;-56
2022/04/13 04:35:27;;;;;;;2.60;2.33;;;20.90;47.70;;;;;;5134496;27;20103;-56
2022/04/13 04:37:52;;;;;;;4.10;2.50;;;20.90;47.80;;;;;;5134453;27;20035;-55
2022/04/13 04:40:18;;;;;;;3.58;2.30;;;20.90;47.80;;;;;;5134510;27;20378;-56
2022/04/13 04:42:45;;;;;;;3.15;2.35;;;20.90;47.80;;;;;;5134479;27;20359;-56
2022/04/13 04:45:12;;;;;;;4.00;2.15;;;20.90;47.90;;;;;;5134327;27;20046;-56
2022/04/13 04:47:38;;;;;;;6.47;2.55;;;20.90;47.80;;;;;;5134361;27;20046;-56
2022/04/13 04:50:04;;;;;;;4.65;2.30;;;20.90;48.10;;;;;;5134601;27;20042;-56
2022/04/13 04:52:29;;;;;;;3.97;2.60;;;20.90;48.10;;;;;;5136113;27;20124;-56
2022/04/13 04:54:55;;;;;;;3.10;2.10;;;20.90;48.10;;;;;;5138732;27;20074;-56
2022/04/13 04:57:21;;;;;;;3.05;2.38;;;20.90;48.10;;;;;;5138745;27;20117;-56
2022/04/13 04:59:46;;;;;;;3.70;2.38;;;20.90;48.60;;;;;;5138400;27;20079;-56
2022/04/13 05:02:12;;;;;;;2.85;2.47;;;20.80;48.20;;;;;;5138230;27;20038;-57
2022/04/13 05:04:37;;;;;;;3.70;2.45;;;20.90;48.30;;;;;;5138217;27;20042;-56
2022/04/13 05:07:03;;;;;;;2.55;2.30;;;20.80;48.20;;;;;;5138737;27;20073;-56
2022/04/13 05:09:29;;;;;;;7.25;2.38;;;20.80;48.20;;;;;;5137238;27;20419;-56
2022/04/13 05:11:54;;;;;;;3.03;2.30;;;20.80;48.20;;;;;;5137810;27;20043;-56
2022/04/13 05:14:20;;;;;;;3.38;2.20;;;20.80;48.30;;;;;;5137833;27;20035;-56
2022/04/13 05:16:46;;;;;;;3.53;2.42;;;20.80;48.30;;;;;;5125388;27;20046;-56
2022/04/13 05:19:15;;;;;;;2.80;2.53;;;20.80;48.20;;;;;;5117517;28;20060;-56
2022/04/13 05:21:41;;;;;;;2.92;2.25;;;20.80;48.20;;;;;;5117418;27;20036;-56
2022/04/13 05:24:06;;;;;;;3.58;2.20;;;20.80;49.00;;;;;;5117324;28;20138;-56
2022/04/13 05:26:32;;;;;;;2.85;2.10;;;20.80;48.20;;;;;;5117625;28;20043;-56
2022/04/13 05:28:57;;;;;;;3.53;2.70;;;20.80;48.20;;;;;;5117290;28;20130;-56
2022/04/13 05:31:24;;;;;;;2.55;2.35;;;20.80;48.20;;;;;;5117007;28;20523;-56
2022/04/13 05:33:49;;;;;;;2.47;2.15;;;20.80;48.20;;;;;;5113466;28;20038;-56
2022/04/13 05:36:15;;;;;;;2.67;2.38;;;20.80;48.20;;;;;;5116007;28;20039;-56
2022/04/13 05:38:40;;;;;;;2.65;2.17;;;20.80;48.20;;;;;;5117971;28;20039;-56
2022/04/13 05:41:06;;;;;;;3.25;2.35;;;20.80;48.10;;;;;;5117058;28;20489;-56
2022/04/13 05:43:34;;;;;;;3.42;2.33;;;20.80;48.10;;;;;;5117705;28;20039;-56
2022/04/13 05:46:00;;;;;;;2.60;2.38;;;20.80;48.20;;;;;;5117008;28;20096;-56
2022/04/13 05:48:26;;;;;;;2.85;2.47;;;20.70;48.10;;;;;;5116982;28;20043;-56
2022/04/13 05:50:51;;;;;;;2.95;2.17;;;20.70;48.10;;;;;;5117400;28;20036;-56
2022/04/13 05:53:17;;;;;;;2.35;2.15;;;20.80;48.20;;;;;;5116808;28;20078;-56
2022/04/13 05:55:42;;;;;;;2.75;2.33;;;20.70;48.10;;;;;;5126627;27;20037;-57
2022/04/13 05:58:08;;;;;;;2.50;2.00;;;20.70;48.10;;;;;;5117062;27;20075;-56
2022/04/13 06:00:33;;;;;;;2.28;2.05;;;20.70;48.00;;;;;;5117242;28;20031;-56
2022/04/13 06:02:59;;;;;;;2.38;2.15;;;20.70;48.00;;;;;;5115223;28;20040;-56
2022/04/13 06:05:24;;;;;;;3.40;2.50;;;20.70;48.00;;;;;;5115610;28;20035;-55
2022/04/13 06:07:52;;;;;;;4.47;2.28;;;20.70;48.00;;;;;;5117154;27;20039;-56
2022/04/13 06:10:19;;;;;;;3.25;2.95;;;20.70;47.90;;;;;;5127284;27;20117;-56
2022/04/13 06:12:47;;;;;;;5.55;4.80;;;20.80;48.00;;;;;;5113809;27;20048;-56
2022/04/13 06:15:12;;;;;;;4.75;3.70;;;20.70;47.90;;;;;;5116427;28;20048;-55
2022/04/13 06:17:39;;;;;;;8.52;4.50;;;20.70;47.70;;;;;;5113850;27;20401;-56
2022/04/13 06:20:06;;;;;;;3.95;3.65;;;20.70;47.80;;;;;;5117595;27;20047;-57
2022/04/13 06:22:36;;;;;;;3.40;3.10;;;20.80;47.90;;;;;;5119954;27;20428;-59
2022/04/13 06:25:03;;;;;;;3.90;3.45;;;20.70;47.80;;;;;;5120804;27;20047;-57
2022/04/13 06:27:29;;;;;;;4.35;3.08;;;20.70;47.90;;;;;;5111424;27;20051;-57
2022/04/13 06:29:55;;;;;;;4.38;3.10;;;20.70;48.00;;;;;;5133502;27;20046;-57
2022/04/13 06:32:20;;;;;;;4.80;3.10;;;20.70;48.00;;;;;;5134825;27;20039;-57
2022/04/13 06:34:46;;;;;;;3.55;2.65;;;20.80;48.00;;;;;;5136744;27;20557;-57
2022/04/13 06:37:11;;;;;;;4.00;3.15;;;20.80;48.10;;;;;;5136524;27;20479;-56
2022/04/13 06:39:37;;;;;;;3.80;2.80;;;20.70;48.10;;;;;;5126318;27;20050;-57
2022/04/13 06:42:03;;;;;;;5.72;3.30;;;20.70;48.10;;;;;;5116395;28;20478;-57
2022/04/13 06:44:28;;;;;;;8.02;3.30;;;20.80;48.20;;;;;;5120391;27;20382;-57
2022/04/13 06:46:54;;;;;;;9.50;3.17;;;20.70;48.10;;;;;;5136927;27;20031;-57
2022/04/13 06:49:20;;;;;;;7.78;3.50;;;20.70;48.20;;;;;;5131295;27;20803;-57
2022/04/13 06:51:45;;;;;;;8.02;2.80;;;20.70;48.20;;;;;;5126543;27;20076;-57
2022/04/13 06:54:11;;;;;;;8.00;3.50;;;20.70;48.20;;;;;;5133232;27;20047;-56
2022/04/13 06:56:39;;;;;;;6.50;2.90;;;20.70;48.40;;;;;;5136600;27;20089;-55
2022/04/13 06:59:05;;;;;;;6.07;3.05;;;20.70;48.60;;;;;;5136632;27;20039;-56
2022/04/13 07:01:30;;;;;;;9.30;2.90;;;20.70;48.60;;;;;;5121329;27;20359;-56
2022/04/13 07:03:56;;;;;;;7.03;2.75;;;20.70;48.50;;;;;;5134106;27;20043;-56
2022/04/13 07:06:22;;;;;;;9.15;3.38;;;20.80;48.60;;;;;;5133806;27;20474;-56
2022/04/13 07:08:47;;;;;;;6.57;3.05;;;20.80;48.70;;;;;;5124342;27;20035;-55
2022/04/13 07:11:13;;;;;;;8.27;2.83;;;20.80;49.50;;;;;;5112582;27;20055;-55
2022/04/13 07:13:38;;;;;;;6.22;3.35;;;20.80;48.90;;;;;;5115377;28;20094;-55
2022/04/13 07:16:04;;;;;;;8.10;3.20;;;20.80;48.90;;;;;;5114983;28;20043;-55
2022/04/13 07:18:30;;;;;;;8.88;3.38;;;20.80;48.90;;;;;;5115060;28;20031;-55
2022/04/13 07:20:55;;;;;;;6.63;3.10;;;20.80;48.90;;;;;;5118849;27;20043;-56
2022/04/13 07:23:21;;;;;;;5.70;2.70;;;20.80;49.00;;;;;;5135749;27;20564;-56
2022/04/13 07:25:46;;;;;;;7.82;2.70;;;20.80;49.10;;;;;;5135573;27;20419;-56
2022/04/13 07:28:13;;;;;;;10.45;3.00;;;20.80;49.20;;;;;;5136006;27;20458;-56
2022/04/13 07:30:38;;;;;;;9.55;3.00;;;20.80;49.30;;;;;;5136015;27;20065;-56
2022/04/13 07:33:04;;;;;;;6.22;2.88;;;20.80;49.40;;;;;;5131378;27;20441;-56
2022/04/13 07:35:31;;;;;;;7.82;2.60;;;20.80;49.30;;;;;;5119600;27;20036;-55
2022/04/13 07:37:57;;;;;;;5.68;2.80;;;20.80;49.40;;;;;;5112785;27;20420;-56
2022/04/13 07:40:23;;;;;;;8.75;3.00;;;20.80;49.60;;;;;;5112391;27;20039;-55
2022/04/13 07:42:49;;;;;;;6.55;3.17;;;20.80;49.70;;;;;;5120098;27;20072;-55
2022/04/13 07:45:15;;;;;;;4.57;2.97;;;20.80;49.80;;;;;;5135167;27;20401;-55
2022/04/13 07:47:41;;;;;;;6.20;3.17;;;20.80;49.80;;;;;;5124677;27;20035;-55
2022/04/13 07:50:07;;;;;;;8.32;3.10;;;20.80;49.90;;;;;;5114602;28;20071;-55
2022/04/13 07:52:36;;;;;;;6.25;3.15;;;20.80;49.90;;;;;;5114623;28;20384;-55
2022/04/13 07:55:02;;;;;;;7.35;3.20;;;20.80;50.00;;;;;;5113836;27;20348;-55
2022/04/13 07:57:28;;;;;;;3.90;2.60;;;20.80;50.30;;;;;;5125982;27;20486;-54
2022/04/13 07:59:54;;;;;;;4.88;2.83;;;20.80;50.50;;;;;;5111752;27;20043;-56
2022/04/13 08:02:20;;;;;;;6.90;2.72;;;20.70;50.30;;;;;;5113200;27;20074;-57
2022/04/13 08:04:46;;;;;;;4.00;2.65;;;20.70;50.30;;;;;;5112359;27;20054;-58
2022/04/13 08:07:13;;;;;;;4.20;2.45;;;20.70;50.20;;;;;;5113612;27;20036;-56
2022/04/13 08:09:39;;;;;;;5.65;2.47;;;20.70;50.30;;;;;;5114201;27;20050;-56
2022/04/13 08:12:05;;;;;;;5.22;2.83;;;20.70;50.50;;;;;;5114034;27;20082;-56
2022/04/13 08:14:30;;;;;;;5.60;2.50;;;20.70;50.60;;;;;;5112282;27;20106;-56
2022/04/13 08:16:56;;;;;;;5.05;2.70;;;20.70;50.80;;;;;;5114323;27;20930;-57
2022/04/13 08:19:23;;;;;;;5.63;3.33;;;20.70;51.30;;;;;;5113357;27;20038;-56
2022/04/13 08:21:48;;;;;;;4.63;2.65;;;20.80;51.60;;;;;;5112420;27;20582;-57
2022/04/13 08:24:17;;;;;;;4.10;2.80;;;20.80;51.80;;;;;;5113091;27;20557;-56
2022/04/13 08:26:44;;;;;;;8.93;2.85;;;20.80;52.00;;;;;;5114270;27;20042;-55
2022/04/13 08:29:10;;;;;;;5.43;2.45;;;20.80;51.90;;;;;;5113409;28;20036;-57
2022/04/13 08:31:35;;;;;;;4.40;2.80;;;20.80;52.70;;;;;;5113847;28;20050;-56
2022/04/13 08:34:01;;;;;;;4.68;3.03;;;20.80;51.90;;;;;;5113707;28;20031;-56
2022/04/13 08:36:26;;;;;;;6.88;2.60;;;20.80;52.00;;;;;;5113491;27;20043;-57
2022/04/13 08:38:52;;;;;;;4.88;2.67;;;20.80;52.00;;;;;;5115135;27;20053;-56
2022/04/13 08:41:40;;;;;;;4.55;2.40;;;20.80;52.00;;;;;;5112396;28;20039;-56
2022/04/13 08:44:25;;;;;;;5.72;2.65;;;20.80;52.20;;;;;;5113952;28;20078;-57
2022/04/13 08:46:55;;;;;;;4.45;2.47;;;20.80;52.40;;;;;;5112017;28;20097;-56
2022/04/13 08:49:21;;;;;;;5.35;2.67;;;20.80;52.40;;;;;;5115999;28;20054;-56
2022/04/13 08:51:49;;;;;;;7.20;2.42;;;20.80;52.20;;;;;;5112195;27;20047;-56
2022/04/13 08:54:20;;;;;;;3.20;2.42;;;20.80;52.20;;;;;;5112256;28;20110;-56
2022/04/13 08:56:50;;;;;;;5.47;2.38;;;20.80;52.30;;;;;;5112078;28;20043;-56
2022/04/13 08:59:31;;;;;;;3.75;2.55;;;20.80;52.40;;;;;;5110067;28;20441;-55
2022/04/13 09:02:25;;;;;;;4.53;2.38;;;20.80;52.50;;;;;;5112464;28;20043;-58
2022/04/13 09:04:55;;;;;;;3.55;2.35;;;20.80;52.50;;;;;;5110516;27;20036;-56
2022/04/13 09:07:23;;;;;;;5.07;2.55;;;20.80;52.40;;;;;;5110018;28;20308;-58
2022/04/13 09:09:53;;;;;;;3.65;2.10;;;20.80;52.20;;;;;;5109567;28;20585;-56
2022/04/13 09:12:19;;;;;;;3.97;2.30;;;20.80;52.20;;;;;;5115274;27;20066;-56
2022/04/13 09:14:45;;;;;;;2.70;1.88;;;20.80;52.10;;;;;;5113581;28;20036;-57
2022/04/13 09:17:11;;;;;;;4.70;2.55;;;20.80;52.00;;;;;;5113167;28;20053;-57
2022/04/13 09:19:38;;;;;;;2.65;2.22;;;20.80;52.10;;;;;;5106942;27;20123;-56
2022/04/13 09:22:05;;;;;;;4.18;2.05;;;20.80;51.90;;;;;;5116419;28;20127;-57
2022/04/13 09:24:32;;;;;;;4.28;1.88;;;20.80;51.90;;;;;;5114205;28;20047;-56
2022/04/13 09:26:59;;;;;;;4.15;1.98;;;20.80;51.90;;;;;;5111731;28;20346;-56
2022/04/13 09:29:25;;;;;;;3.83;2.13;;;20.80;51.80;;;;;;5112884;28;20043;-57
2022/04/13 09:31:51;;;;;;;3.65;2.00;;;20.80;51.80;;;;;;5114188;28;20040;-56
2022/04/13 09:34:16;;;;;;;2.80;1.80;;;20.80;51.80;;;;;;5113923;28;20086;-57
2022/04/13 09:36:43;;;;;;;2.78;1.88;;;20.80;51.80;;;;;;5111076;28;20039;-57
2022/04/13 09:39:10;;;;;;;3.15;2.05;;;20.80;51.70;;;;;;5113101;27;20478;-61
2022/04/13 09:41:39;;;;;;;2.85;1.95;;;20.80;51.70;;;;;;5115832;27;20128;-56
2022/04/13 09:44:15;;;;;;;4.22;2.03;;;20.90;51.70;;;;;;5115411;27;20333;-56
2022/04/13 09:46:42;;;;;;;2.42;1.67;;;20.90;51.80;;;;;;5116744;27;20043;-56
2022/04/13 09:49:07;;;;;;;3.97;2.00;;;20.80;51.60;;;;;;5117662;27;20070;-57
2022/04/13 09:51:46;;;;;;;3.58;2.10;;;20.80;51.60;;;;;;5116584;27;20129;-56
2022/04/13 09:54:12;;;;;;;2.28;1.90;;;20.80;51.60;;;;;;5116500;27;20474;-57
2022/04/13 09:56:42;;;;;;;2.38;1.80;;;20.80;51.50;;;;;;5113257;27;20047;-56
2022/04/13 09:59:10;;;;;;;3.55;1.73;;;20.80;51.40;;;;;;5118869;27;20386;-57
2022/04/13 10:01:36;;;;;;;3.30;1.63;;;20.80;51.40;;;;;;5114574;27;20070;-57
2022/04/13 10:04:05;;;;;;;2.35;1.58;;;20.90;51.50;;;;;;5115539;27;20374;-56
2022/04/13 10:06:33;;;;;;;2.55;1.70;;;20.90;51.50;;;;;;5114384;27;20355;-59
2022/04/13 10:09:08;;;;;;;2.10;1.55;;;20.80;51.40;;;;;;5115863;27;20047;-57
2022/04/13 10:11:34;;;;;;;3.67;1.73;;;20.90;51.40;;;;;;5114494;27;20039;-57
2022/04/13 10:14:05;;;;;;;1.92;1.73;;;20.80;51.30;;;;;;5113623;27;20067;-56
2022/04/13 10:16:35;;;;;;;2.38;1.50;;;20.80;51.30;;;;;;5113660;27;20409;-57
2022/04/13 10:19:02;;;;;;;3.58;1.83;;;20.80;51.30;;;;;;5110622;27;20455;-56
2022/04/13 10:21:47;;;;;;;2.97;1.67;;;20.90;51.50;;;;;;5112354;27;20041;-56
2022/04/13 10:24:18;;;;;;;3.17;1.58;;;20.90;51.50;;;;;;5117360;27;20035;-57
2022/04/13 10:27:02;;;;;;;2.45;1.52;;;20.80;51.50;;;;;;5121542;27;20523;-56
2022/04/13 10:29:28;;;;;;;2.47;1.35;;;20.80;51.70;;;;;;5115029;27;20469;-56
2022/04/13 10:32:08;;;;;;;3.33;1.70;;;20.80;51.70;;;;;;5115149;27;20092;-56
2022/04/13 10:34:40;;;;;;;2.05;1.70;;;20.90;51.80;;;;;;5114873;27;20050;-56
2022/04/13 10:37:07;;;;;;;3.38;1.92;;;20.80;51.80;;;;;;5116474;27;20075;-58
2022/04/13 10:39:33;;;;;;;1.95;1.45;;;20.90;51.90;;;;;;5114309;27;20126;-57
2022/04/13 10:42:02;;;;;;;2.67;1.60;;;20.80;51.80;;;;;;5116085;27;20051;-57
2022/04/13 10:44:38;;;;;;;2.13;1.50;;;20.80;51.80;;;;;;5114489;27;20040;-57
2022/04/13 10:47:06;;;;;;;2.58;1.80;;;20.90;51.90;;;;;;5118518;27;20167;-56
2022/04/13 10:49:53;;;;;;;3.63;1.88;;;20.90;51.80;;;;;;5129551;27;20154;-56
2022/04/13 10:52:47;;;;;;;3.22;1.80;;;20.80;51.90;;;;;;5113240;27;20027;-58
2022/04/13 10:55:14;;;;;;;2.85;1.90;;;20.90;52.10;;;;;;5113367;27;20042;-55
2022/04/13 10:57:40;;;;;;;2.22;1.50;;;20.90;52.30;;;;;;5115778;27;20046;-55
2022/04/13 11:00:07;;;;;;;6.25;1.67;;;20.90;52.50;;;;;;5113090;27;20039;-56
2022/04/13 11:02:49;;;;;;;3.88;1.80;;;20.90;52.40;;;;;;5115480;27;20478;-56
2022/04/13 11:05:15;;;;;;;2.42;1.80;;;20.90;52.50;;;;;;5114622;27;20370;-56
2022/04/13 11:07:41;;;;;;;2.65;1.73;;;20.90;52.40;;;;;;5118817;27;20038;-55
2022/04/13 11:10:18;;;;;;;4.80;1.95;;;20.90;53.10;;;;;;5118861;27;20049;-55
2022/04/13 11:12:45;;;;;;;5.55;1.60;;;20.90;52.40;;;;;;5112708;27;20088;-56
2022/04/13 11:15:11;;;;;;;3.70;2.10;;;20.90;52.40;;;;;;5121263;27;20063;-56
2022/04/13 11:17:41;;;;;;;2.75;1.70;;;20.90;52.40;;;;;;5115719;27;20074;-57
2022/04/13 11:20:20;;;;;;;2.53;1.70;;;20.90;52.40;;;;;;5114700;27;20051;-57
2022/04/13 11:23:05;;;;;;;4.22;2.13;;;20.90;52.30;;;;;;5111870;27;20466;-57
2022/04/13 11:25:47;;;;;;;2.42;1.40;;;20.90;52.10;;;;;;5114226;27;20570;-56
2022/04/13 11:28:31;;;;;;;1.85;1.25;;;20.90;52.00;;;;;;5112773;27;20036;-56
2022/04/13 11:31:08;;;;;;;3.45;1.52;;;20.90;52.00;;;;;;5114544;27;20130;-57
2022/04/13 11:33:51;;;;;;;2.55;1.42;;;20.90;52.00;;;;;;5116500;27;20442;-56
2022/04/13 11:36:21;;;;;;;5.20;2.08;;;20.90;52.00;;;;;;5117096;27;20042;-56
2022/04/13 11:38:50;;;;;;;3.90;1.30;;;20.90;51.80;;;;;;5113558;27;20039;-59
2022/04/13 11:41:17;;;;;;;3.70;1.77;;;20.80;51.80;;;;;;5112084;27;20503;-56
2022/04/13 11:43:42;;;;;;;2.92;1.63;;;20.80;51.80;;;;;;5113619;27;20032;-56
2022/04/13 11:46:29;;;;;;;2.42;1.50;;;20.90;51.90;;;;;;5110792;27;20489;-56
2022/04/13 11:48:55;;;;;;;3.83;1.35;;;20.80;51.80;;;;;;5113289;27;20081;-56
2022/04/13 11:51:30;;;;;;;2.25;1.40;;;20.90;51.80;;;;;;5114297;27;20134;-58
2022/04/13 11:54:06;;;;;;;2.67;1.50;;;20.90;51.80;;;;;;5114493;27;20498;-57
2022/04/13 11:56:48;;;;;;;2.42;1.50;;;20.90;51.90;;;;;;5112600;27;20104;-57
2022/04/13 11:59:37;;;;;;;2.28;1.27;;;20.90;51.80;;;;;;5115556;27;20043;-58
2022/04/13 12:02:07;;;;;;;2.13;1.30;;;20.90;51.70;;;;;;5109332;27;20045;-56
2022/04/13 12:04:33;;;;;;;4.23;1.60;;;20.90;51.80;;;;;;5111526;27;20123;-56
2022/04/13 12:07:00;;;;;;;2.25;1.38;;;20.90;51.70;;;;;;5116791;27;20047;-56
2022/04/13 12:09:27;;;;;;;2.28;1.30;;;20.90;51.80;;;;;;5114199;27;20497;-57
2022/04/13 12:11:55;;;;;;;4.20;1.85;;;20.90;51.70;;;;;;5114124;27;20120;-58
2022/04/13 12:14:29;;;;;;;3.13;1.60;;;20.90;51.70;;;;;;5114753;27;20458;-58
2022/04/13 12:16:59;;;;;;;2.83;1.70;;;20.90;51.70;;;;;;5113919;27;20043;-57
2022/04/13 12:19:36;;;;;;;3.60;1.67;;;20.90;51.70;;;;;;5114690;27;20043;-57
2022/04/13 12:22:13;;;;;;;2.35;1.63;;;20.90;51.60;;;;;;5112423;27;20509;-56
2022/04/13 12:24:58;;;;;;;3.25;1.63;;;20.90;51.70;;;;;;5114871;27;20052;-56
2022/04/13 12:27:24;;;;;;;1.85;1.42;;;20.90;51.70;;;;;;5116037;27;20393;-57
2022/04/13 12:29:49;;;;;;;4.93;1.70;;;20.90;51.60;;;;;;5115019;27;20039;-57
2022/04/13 12:32:18;;;;;;;2.72;1.30;;;20.90;51.60;;;;;;5110499;28;20406;-57
2022/04/13 12:34:44;;;;;;;3.15;1.88;;;20.80;51.60;;;;;;5111034;28;20486;-57
2022/04/13 12:37:09;;;;;;;3.22;1.60;;;20.80;51.60;;;;;;5117866;28;20140;-57
2022/04/13 12:39:35;;;;;;;2.78;1.52;;;20.80;51.60;;;;;;5113851;27;20062;-57
2022/04/13 12:42:03;;;;;;;2.75;1.42;;;20.80;51.60;;;;;;5114554;28;20586;-56
2022/04/13 12:44:29;;;;;;;3.63;1.50;;;20.90;51.70;;;;;;5120330;28;20039;-56
2022/04/13 12:47:05;;;;;;;6.45;1.90;;;20.90;51.70;;;;;;5123511;28;20123;-56
2022/04/13 12:49:31;;;;;;;3.00;1.75;;;20.90;51.90;;;;;;5112688;28;20404;-56
2022/04/13 12:51:57;;;;;;;3.83;2.10;;;20.80;52.00;;;;;;5125290;28;20050;-56